Mumbai Express — V2AH1 — position and weather

sailwx.info

Track history (hours):
 
Tides and Currents Weather Stations Pressure Air Temp Water Temp Dewpoint Dewpoint Depression Visibility Wind Speed Wind Dir Waves Ship Positions

Mumbai Express

Last reported at 2014-Nov-18 04:33 UTC. Time now 2014-Nov-23 17:23 UTC.
Position N 34°32' E 021°15'.

Length 260.7 m; beam 32.3 m; draft 12.5 m.

Type: Ship. MMSI: 304010914.

Date/timePositionNaut miles runAvg speedWind from/ knotsBaromVisibWave heightAir tempDewpointWater temp
2014-Nov-18 04:33N 34°32' E 021°15'47416.8
2014-Nov-17 00:24N 37°04' E 012°00'2016.5
2014-Nov-16 23:13N 37°12' E 011°38'14517.6
2014-Nov-16 15:00N 37°12' E 008°36'42417.0 290 / 101015.010.8 21.0
2014-Nov-15 14:00N 36°36' W 000°12'24917.2 250 / 151015.510.8 21.0
2014-Nov-14 23:33N 35°60' W 005°17'14216.5
2014-Nov-14 15:00N 36°12' W 008°12'58117.1 010 1012.0 5.4 1.521.0
2014-Nov-13 05:00N 37°24' W 020°12'13216.9 290 / 141010.0 5.4 19.0
2014-Nov-12 21:13N 37°27' W 022°58'2916.9
2014-Nov-12 19:31N 37°28' W 023°34'1717.2
2014-Nov-12 18:33N 37°28' W 023°55'1717.0
2014-Nov-12 17:33N 37°28' W 024°16'1716.9
2014-Nov-12 16:34N 37°28' W 024°37'1717.1
2014-Nov-12 15:33N 37°29' W 024°59'1817.6
2014-Nov-12 14:33N 37°29' W 025°21'1717.1
2014-Nov-12 13:33N 37°29' W 025°43'1716.8
2014-Nov-12 12:33N 37°29' W 026°04'1716.7
2014-Nov-12 11:34N 37°29' W 026°25'1716.9
2014-Nov-12 10:33N 37°30' W 026°46'1717.2
2014-Nov-12 09:33N 37°30' W 027°08'1717.4
2014-Nov-12 08:33N 37°30' W 027°30'1717.4
2014-Nov-12 07:33N 37°31' W 027°52'1717.1
2014-Nov-12 06:33N 37°31' W 028°13'1717.2
2014-Nov-12 05:33N 37°31' W 028°35'1717.1
2014-Nov-12 04:34N 37°31' W 028°57'1717.2
2014-Nov-12 03:34N 37°31' W 029°18'1716.7
2014-Nov-12 02:33N 37°31' W 029°39'1717.2
2014-Nov-12 01:33N 37°32' W 030°01'2017.1
2014-Nov-12 00:25N 37°30' W 030°26'3917.0
2014-Nov-11 22:08N 37°26' W 031°14'1217.0
2014-Nov-11 21:24N 37°25' W 031°30'1617.1
2014-Nov-11 20:27N 37°24' W 031°50'1517.1
2014-Nov-11 19:33N 37°22' W 032°09'1917.0
2014-Nov-11 18:26N 37°20' W 032°33'50617.2
2014-Nov-10 13:00N 36°18' W 043°00'11416.3 200 / 31027.010.8 25.0 25.0
2014-Nov-10 06:00N 35°54' W 045°18'26016.2 230 / 101027.010.8 22.5
2014-Nov-09 14:00N 35°00' W 050°30'   270 / 81025.5 5.4 24.0 26.0
Track history (hours):
 
Tides and Currents Weather Stations Pressure Air Temp Water Temp Dewpoint Dewpoint Depression Visibility Wind Speed Wind Dir Waves Ship Positions

Mumbai Express

Last reported at 2014-Nov-18 04:33 UTC. Time now 2014-Nov-23 17:23 UTC.
Position N 34°32' E 021°15'.

Length 260.7 m; beam 32.3 m; draft 12.5 m.

Type: Ship. MMSI: 304010914.

Date/timePositionNaut miles runAvg speedWind from/ knotsBaromVisibWave heightAir tempDewpointWater temp
2014-Nov-18 04:33N 34°32' E 021°15'47416.8
2014-Nov-17 00:24N 37°04' E 012°00'2016.5
2014-Nov-16 23:13N 37°12' E 011°38'14517.6
2014-Nov-16 15:00N 37°12' E 008°36'42417.0 290 / 101015.010.8 21.0
2014-Nov-15 14:00N 36°36' W 000°12'24917.2 250 / 151015.510.8 21.0
2014-Nov-14 23:33N 35°60' W 005°17'14216.5
2014-Nov-14 15:00N 36°12' W 008°12'58117.1 010 1012.0 5.4 1.521.0
2014-Nov-13 05:00N 37°24' W 020°12'13216.9 290 / 141010.0 5.4 19.0
2014-Nov-12 21:13N 37°27' W 022°58'2916.9
2014-Nov-12 19:31N 37°28' W 023°34'1717.2
2014-Nov-12 18:33N 37°28' W 023°55'1717.0
2014-Nov-12 17:33N 37°28' W 024°16'1716.9
2014-Nov-12 16:34N 37°28' W 024°37'1717.1
2014-Nov-12 15:33N 37°29' W 024°59'1817.6
2014-Nov-12 14:33N 37°29' W 025°21'1717.1
2014-Nov-12 13:33N 37°29' W 025°43'1716.8
2014-Nov-12 12:33N 37°29' W 026°04'1716.7
2014-Nov-12 11:34N 37°29' W 026°25'1716.9
2014-Nov-12 10:33N 37°30' W 026°46'1717.2
2014-Nov-12 09:33N 37°30' W 027°08'1717.4
2014-Nov-12 08:33N 37°30' W 027°30'1717.4
2014-Nov-12 07:33N 37°31' W 027°52'1717.1
2014-Nov-12 06:33N 37°31' W 028°13'1717.2
2014-Nov-12 05:33N 37°31' W 028°35'1717.1
2014-Nov-12 04:34N 37°31' W 028°57'1717.2
2014-Nov-12 03:34N 37°31' W 029°18'1716.7
2014-Nov-12 02:33N 37°31' W 029°39'1717.2
2014-Nov-12 01:33N 37°32' W 030°01'2017.1
2014-Nov-12 00:25N 37°30' W 030°26'3917.0
2014-Nov-11 22:08N 37°26' W 031°14'1217.0
2014-Nov-11 21:24N 37°25' W 031°30'1617.1
2014-Nov-11 20:27N 37°24' W 031°50'1517.1
2014-Nov-11 19:33N 37°22' W 032°09'1917.0
2014-Nov-11 18:26N 37°20' W 032°33'50617.2
2014-Nov-10 13:00N 36°18' W 043°00'11416.3 200 / 31027.010.8 25.0 25.0
2014-Nov-10 06:00N 35°54' W 045°18'26016.2 230 / 101027.010.8 22.5
2014-Nov-09 14:00N 35°00' W 050°30'   270 / 81025.5 5.4 24.0 26.0

Dump ship's entire track history